createdAt,value
2019-02-21T00:00:54.699Z,20.03
2019-02-21T00:03:24.165Z,23.10
2019-02-21T00:05:53.715Z,18.67
2019-02-21T00:08:23.681Z,21.27
2019-02-21T00:10:53.166Z,26.83
2019-02-21T00:13:22.541Z,25.53
2019-02-21T00:15:52.868Z,24.87
2019-02-21T00:18:24.053Z,24.33
2019-02-21T00:20:53.559Z,26.40
2019-02-21T00:23:23.099Z,38.53
2019-02-21T00:25:52.559Z,34.03
2019-02-21T00:28:22.047Z,27.70
2019-02-21T00:30:51.287Z,18.13
2019-02-21T00:33:21.482Z,18.43
2019-02-21T00:35:55.877Z,22.20
2019-02-21T00:38:25.039Z,26.50
2019-02-21T00:41:01.662Z,20.30
2019-02-21T00:43:33.142Z,19.80
2019-02-21T00:46:02.519Z,16.50
2019-02-21T00:48:37.779Z,21.33
2019-02-21T00:51:07.251Z,23.93
2019-02-21T00:53:37.569Z,27.27
2019-02-21T00:56:06.753Z,30.67
2019-02-21T00:58:36.179Z,29.13
2019-02-21T01:01:06.577Z,32.80
2019-02-21T01:03:36.054Z,33.13
2019-02-21T01:06:05.602Z,32.00
2019-02-21T01:08:35.035Z,41.07
2019-02-21T01:11:05.647Z,42.83
2019-02-21T01:13:34.989Z,40.43
2019-02-21T01:16:05.327Z,43.17
2019-02-21T01:18:34.722Z,39.77
2019-02-21T01:21:04.268Z,36.70
2019-02-21T01:23:34.521Z,46.67
2019-02-21T01:26:04.098Z,41.63
2019-02-21T01:28:33.553Z,49.87
2019-02-21T01:31:03.393Z,44.10
2019-02-21T01:33:33.204Z,51.50
2019-02-21T01:36:02.456Z,49.37
2019-02-21T01:38:31.653Z,44.70
2019-02-21T01:41:01.143Z,44.10
2019-02-21T01:43:30.553Z,49.47
2019-02-21T01:45:59.707Z,48.87
2019-02-21T01:48:29.687Z,56.30
2019-02-21T01:50:59.057Z,55.27
2019-02-21T01:53:28.215Z,54.17
2019-02-21T01:55:57.784Z,55.33
2019-02-21T01:58:27.181Z,55.90
2019-02-21T02:00:56.359Z,54.30
2019-02-21T02:03:25.816Z,54.37
2019-02-21T02:05:55.287Z,58.30
2019-02-21T02:08:24.865Z,54.67
2019-02-21T02:10:54.304Z,54.43
2019-02-21T02:13:24.930Z,54.03
2019-02-21T02:15:54.543Z,53.70
2019-02-21T02:18:23.718Z,59.27
2019-02-21T02:20:53.200Z,55.90
2019-02-21T02:23:24.292Z,56.20
2019-02-21T02:25:53.846Z,53.83
2019-02-21T02:28:23.276Z,61.50
2019-02-21T02:30:52.435Z,60.93
2019-02-21T02:33:21.987Z,51.27
2019-02-21T02:35:53.443Z,57.27
2019-02-21T02:38:22.943Z,57.63
2019-02-21T02:40:53.320Z,58.50
2019-02-21T02:43:23.585Z,53.37
2019-02-21T02:45:52.815Z,56.83
2019-02-21T02:48:22.244Z,61.90
2019-02-21T02:50:52.530Z,55.13
2019-02-21T02:53:22.035Z,57.97
2019-02-21T02:55:51.385Z,52.80
2019-02-21T02:58:21.863Z,62.97
2019-02-21T03:00:51.042Z,68.60
2019-02-21T03:03:20.502Z,64.50
2019-02-21T03:05:50.862Z,63.73
2019-02-21T03:08:20.337Z,64.33
2019-02-21T03:10:49.836Z,58.50
2019-02-21T03:13:19.320Z,68.10
2019-02-21T03:15:48.820Z,68.67
2019-02-21T03:18:18.342Z,69.57
2019-02-21T03:20:47.824Z,69.03
2019-02-21T03:23:17.350Z,70.20
2019-02-21T03:25:46.893Z,65.73
2019-02-21T03:28:17.156Z,72.57
2019-02-21T03:30:46.687Z,66.37
2019-02-21T03:33:16.201Z,67.33
2019-02-21T03:35:45.663Z,72.17
2019-02-21T03:38:15.171Z,78.33
2019-02-21T03:40:44.388Z,65.03
2019-02-21T03:43:13.933Z,70.80
2019-02-21T03:45:43.285Z,73.53
2019-02-21T03:48:12.482Z,78.17
2019-02-21T03:50:41.887Z,68.27
2019-02-21T03:53:11.394Z,71.43
2019-02-21T03:55:40.579Z,71.87
2019-02-21T03:58:10.060Z,75.70
2019-02-21T04:00:39.565Z,71.33
2019-02-21T04:03:09.130Z,67.53
2019-02-21T04:05:39.506Z,74.80
2019-02-21T04:08:08.843Z,66.30
2019-02-21T04:10:38.390Z,69.57
2019-02-21T04:13:07.998Z,71.67
2019-02-21T04:15:37.424Z,70.70
2019-02-21T04:18:06.885Z,76.83
2019-02-21T04:20:36.772Z,70.80
2019-02-21T04:23:05.923Z,69.57
2019-02-21T04:25:35.419Z,70.00
2019-02-21T04:28:04.966Z,74.73
2019-02-21T04:30:35.202Z,77.47
2019-02-21T04:33:04.721Z,75.30
2019-02-21T04:35:34.381Z,79.53
2019-02-21T04:38:03.703Z,78.97
2019-02-21T04:40:34.455Z,92.20
2019-02-21T04:43:04.847Z,92.23
2019-02-21T04:45:34.434Z,82.33
2019-02-21T04:48:09.567Z,84.90
2019-02-21T04:50:39.014Z,73.37
2019-02-21T04:53:08.185Z,89.47
2019-02-21T04:55:37.659Z,84.93
2019-02-21T04:58:07.499Z,89.20
2019-02-21T05:00:38.698Z,90.90
2019-02-21T05:03:16.850Z,92.63
2019-02-21T05:05:47.188Z,90.63
2019-02-21T05:08:16.644Z,101.63
2019-02-21T05:10:48.358Z,110.80
2019-02-21T05:13:17.715Z,96.13
2019-02-21T05:16:00.627Z,118.03
2019-02-21T05:18:37.884Z,108.60
2019-02-21T05:21:07.165Z,111.43
2019-02-21T05:23:38.660Z,116.00
2019-02-21T05:26:09.718Z,110.27
2019-02-21T05:28:41.356Z,117.17
2019-02-21T05:31:13.339Z,129.30
2019-02-21T05:33:46.988Z,127.70
2019-02-21T05:36:27.355Z,120.17
2019-02-21T05:39:03.996Z,128.90
2019-02-21T05:41:42.167Z,120.30
2019-02-21T05:44:45.973Z,131.43
2019-02-21T05:47:35.014Z,136.90
2019-02-21T05:50:23.909Z,145.73
2019-02-21T05:53:00.732Z,137.33
2019-02-21T05:55:32.193Z,142.00
2019-02-21T05:58:07.886Z,149.30
2019-02-21T06:00:49.342Z,148.40
2019-02-21T06:03:35.983Z,144.43
2019-02-21T06:06:09.408Z,128.87
2019-02-21T06:08:44.227Z,143.70
2019-02-21T06:11:27.618Z,149.77
2019-02-21T06:14:10.457Z,144.77
2019-02-21T06:16:43.996Z,156.43
2019-02-21T06:19:19.050Z,160.30
2019-02-21T06:21:50.986Z,132.73
2019-02-21T06:24:24.902Z,140.10
2019-02-21T06:27:00.817Z,144.63
2019-02-21T06:29:33.900Z,143.03
2019-02-21T06:32:13.549Z,145.40
2019-02-21T06:34:33.654Z,141.33
2019-02-21T06:37:03.126Z,139.50
2019-02-21T06:39:33.611Z,148.03
2019-02-21T06:42:03.794Z,161.07
2019-02-21T06:44:33.540Z,154.83
2019-02-21T06:47:02.814Z,147.10
2019-02-21T06:49:33.149Z,150.50
2019-02-21T06:52:03.001Z,162.43
2019-02-21T06:54:32.409Z,149.73
2019-02-21T06:57:03.692Z,161.17
2019-02-21T06:59:41.906Z,155.30
2019-02-21T07:02:04.302Z,153.47
2019-02-21T07:04:33.585Z,164.03
2019-02-21T07:07:02.974Z,167.87
2019-02-21T07:09:32.582Z,170.27
2019-02-21T07:12:01.978Z,187.00
2019-02-21T07:14:34.500Z,171.00
2019-02-21T07:17:05.034Z,167.77
2019-02-21T07:19:36.229Z,167.37
2019-02-21T07:22:06.356Z,175.30
2019-02-21T07:24:38.496Z,184.30
2019-02-21T07:27:07.618Z,160.13
2019-02-21T07:29:38.869Z,174.13
2019-02-21T07:32:09.062Z,177.83
2019-02-21T07:34:39.421Z,183.50
2019-02-21T07:37:18.147Z,176.00
2019-02-21T07:39:40.012Z,166.13
2019-02-21T07:42:10.439Z,159.73
2019-02-21T07:44:39.636Z,166.23
2019-02-21T07:47:09.776Z,178.60
2019-02-21T07:49:39.301Z,171.13
2019-02-21T07:52:09.584Z,164.70
2019-02-21T07:54:39.085Z,168.77
2019-02-21T07:57:08.714Z,176.97
2019-02-21T07:59:38.535Z,169.33
2019-02-21T08:02:08.138Z,162.27
2019-02-21T08:04:37.554Z,160.47
2019-02-21T08:07:07.005Z,172.90
2019-02-21T08:09:36.590Z,161.63
2019-02-21T08:12:06.132Z,171.57
2019-02-21T08:14:35.615Z,153.17
2019-02-21T08:17:05.865Z,151.13
2019-02-21T08:19:37.461Z,148.57
2019-02-21T08:22:06.932Z,155.57
2019-02-21T08:24:38.958Z,151.60
2019-02-21T08:27:08.420Z,140.03
2019-02-21T08:29:37.890Z,145.20
2019-02-21T08:32:07.207Z,142.33
2019-02-21T08:34:38.186Z,147.97
2019-02-21T08:37:08.808Z,156.30
2019-02-21T08:39:38.378Z,139.40
2019-02-21T08:42:08.003Z,137.43
2019-02-21T08:44:37.401Z,134.47
2019-02-21T08:47:06.953Z,141.70
2019-02-21T08:49:36.452Z,143.40
2019-02-21T08:52:06.711Z,157.03
2019-02-21T08:54:35.866Z,146.87
2019-02-21T08:57:05.371Z,153.87
2019-02-21T08:59:34.848Z,158.30
2019-02-21T09:02:05.155Z,152.47
2019-02-21T09:04:35.513Z,158.47
2019-02-21T09:07:05.042Z,167.37
2019-02-21T09:09:37.373Z,165.27
2019-02-21T09:12:06.964Z,162.37
2019-02-21T09:14:44.221Z,162.23
2019-02-21T09:17:16.563Z,149.90
2019-02-21T09:19:46.082Z,168.77
2019-02-21T09:22:16.343Z,175.60
2019-02-21T09:24:45.573Z,165.07
2019-02-21T09:27:17.477Z,166.93
2019-02-21T09:29:47.743Z,156.43
2019-02-21T09:32:20.152Z,177.33
2019-02-21T09:34:50.460Z,164.60
2019-02-21T09:37:23.270Z,168.77
2019-02-21T09:39:52.817Z,177.47
2019-02-21T09:42:22.227Z,194.93
2019-02-21T09:45:00.364Z,177.53
2019-02-21T09:47:31.163Z,186.43
2019-02-21T09:50:01.799Z,186.30
2019-02-21T09:52:31.092Z,189.10
2019-02-21T09:55:00.404Z,190.90
2019-02-21T09:57:29.910Z,181.47
2019-02-21T09:59:59.430Z,188.53
2019-02-21T10:02:29.723Z,187.70
2019-02-21T10:05:04.901Z,179.17
2019-02-21T10:07:31.300Z,179.57
2019-02-21T10:10:01.080Z,177.57
2019-02-21T10:12:31.514Z,166.20
2019-02-21T10:15:06.283Z,161.87
2019-02-21T10:17:41.520Z,163.60
2019-02-21T10:20:14.296Z,166.13
2019-02-21T10:22:51.216Z,166.10
2019-02-21T10:25:34.303Z,164.90
2019-02-21T10:28:09.502Z,166.47
2019-02-21T10:30:45.942Z,147.83
2019-02-21T10:33:15.565Z,160.77
2019-02-21T10:35:45.066Z,161.93
2019-02-21T10:38:14.701Z,175.27
2019-02-21T10:40:45.979Z,160.43
2019-02-21T10:43:15.161Z,161.57
2019-02-21T10:45:47.750Z,145.90
2019-02-21T10:48:15.721Z,144.13
2019-02-21T10:50:45.254Z,140.13
2019-02-21T10:53:14.783Z,151.73
2019-02-21T10:55:44.234Z,150.10
2019-02-21T10:58:13.813Z,134.97
2019-02-21T11:00:43.272Z,130.17
2019-02-21T11:03:12.873Z,142.63
2019-02-21T11:05:42.041Z,121.97
2019-02-21T11:08:11.457Z,125.27
2019-02-21T11:10:41.748Z,119.67
2019-02-21T11:13:11.165Z,120.20
2019-02-21T11:15:42.161Z,126.87
2019-02-21T11:18:11.301Z,124.13
2019-02-21T11:20:40.484Z,125.40
2019-02-21T11:23:09.687Z,119.63
2019-02-21T11:25:38.917Z,117.27
2019-02-21T11:28:08.075Z,129.33
2019-02-21T11:30:37.415Z,129.03
2019-02-21T11:33:06.716Z,121.83
2019-02-21T11:35:35.983Z,122.27
2019-02-21T11:38:05.275Z,110.60
2019-02-21T11:40:34.510Z,104.57
2019-02-21T11:43:03.666Z,113.30
2019-02-21T11:45:33.889Z,111.87
2019-02-21T11:48:03.059Z,100.07
2019-02-21T11:50:32.388Z,102.53
2019-02-21T11:53:01.595Z,95.97
2019-02-21T11:55:30.791Z,88.37
2019-02-21T11:58:00.007Z,96.50
2019-02-21T12:00:30.938Z,102.10
2019-02-21T12:03:00.098Z,106.57
2019-02-21T12:05:31.379Z,99.33
2019-02-21T12:08:00.154Z,99.13
2019-02-21T12:10:29.468Z,93.27
2019-02-21T12:12:58.708Z,96.57
2019-02-21T12:15:27.975Z,99.73
2019-02-21T12:17:57.221Z,103.50
2019-02-21T12:20:26.458Z,101.77
2019-02-21T12:22:55.660Z,107.70
2019-02-21T12:25:25.485Z,97.67
2019-02-21T12:27:55.128Z,103.17
2019-02-21T12:30:24.373Z,103.97
2019-02-21T12:32:53.712Z,106.93
2019-02-21T12:35:29.633Z,105.00
2019-02-21T12:37:54.462Z,110.47
2019-02-21T12:40:24.113Z,109.83
2019-02-21T12:42:53.519Z,106.93
2019-02-21T12:45:25.891Z,100.27
2019-02-21T12:47:55.273Z,100.63
2019-02-21T12:50:24.752Z,99.63
2019-02-21T12:52:54.475Z,92.27
2019-02-21T12:55:29.295Z,96.97
2019-02-21T12:57:54.977Z,96.07
2019-02-21T13:00:24.528Z,100.73
2019-02-21T13:02:53.914Z,90.20
2019-02-21T13:05:23.144Z,102.60
2019-02-21T13:07:52.561Z,88.90
2019-02-21T13:10:23.674Z,93.53
2019-02-21T13:12:52.841Z,83.03
2019-02-21T13:15:22.028Z,89.70
2019-02-21T13:17:52.338Z,80.43
2019-02-21T13:20:21.690Z,80.80
2019-02-21T13:22:50.898Z,84.67
2019-02-21T13:25:21.178Z,72.60
2019-02-21T13:27:50.751Z,66.60
2019-02-21T13:30:20.165Z,63.70
2019-02-21T13:32:49.619Z,56.97
2019-02-21T13:35:18.775Z,57.83
2019-02-21T13:37:48.262Z,56.10
2019-02-21T13:40:20.930Z,65.20
2019-02-21T13:42:48.912Z,80.10
2019-02-21T13:45:18.682Z,72.27
2019-02-21T13:47:47.900Z,78.70
2019-02-21T13:50:18.621Z,66.37
2019-02-21T13:52:47.906Z,63.67
2019-02-21T13:55:18.457Z,67.37
2019-02-21T13:57:47.684Z,45.43
2019-02-21T14:00:24.503Z,42.63
2019-02-21T14:02:53.933Z,41.60
2019-02-21T14:05:23.093Z,40.57
2019-02-21T14:07:52.278Z,41.00
2019-02-21T14:10:21.692Z,38.10
2019-02-21T14:12:51.125Z,40.37
2019-02-21T14:15:23.607Z,44.67
2019-02-21T14:17:53.116Z,50.50
2019-02-21T14:20:22.657Z,50.20
2019-02-21T14:22:54.921Z,48.50
2019-02-21T14:25:24.459Z,51.40
2019-02-21T14:27:56.016Z,55.10
2019-02-21T14:30:25.561Z,60.40
2019-02-21T14:32:55.001Z,53.17
2019-02-21T14:35:24.454Z,57.10
2019-02-21T14:37:53.659Z,58.93
2019-02-21T14:40:23.985Z,66.87
2019-02-21T14:42:53.414Z,79.87
2019-02-21T14:45:26.228Z,74.27
2019-02-21T14:47:55.683Z,66.97
2019-02-21T14:50:24.929Z,59.07
2019-02-21T14:52:55.173Z,54.30
2019-02-21T14:55:24.611Z,48.23
2019-02-21T14:57:54.099Z,47.83
2019-02-21T15:00:28.129Z,47.37
2019-02-21T15:02:58.466Z,49.67
2019-02-21T15:05:30.365Z,44.00
2019-02-21T15:08:00.778Z,49.23
2019-02-21T15:10:30.227Z,49.13
2019-02-21T15:12:59.393Z,46.60
2019-02-21T15:15:29.689Z,52.73
2019-02-21T15:18:06.958Z,63.67
2019-02-21T15:20:36.874Z,74.67
2019-02-21T15:23:01.489Z,78.73
2019-02-21T15:25:30.956Z,87.43
2019-02-21T15:28:00.160Z,79.50
2019-02-21T15:30:29.610Z,80.73
2019-02-21T15:32:59.157Z,78.40
2019-02-21T15:35:28.579Z,93.57
2019-02-21T15:38:00.415Z,95.80
2019-02-21T15:40:29.211Z,91.57
2019-02-21T15:43:01.270Z,98.87
2019-02-21T15:45:30.780Z,104.40
2019-02-21T15:48:00.181Z,115.07
2019-02-21T15:50:29.337Z,117.27
2019-02-21T15:52:58.838Z,114.20
2019-02-21T15:55:28.330Z,129.47
2019-02-21T15:58:04.060Z,116.20
2019-02-21T16:00:29.060Z,129.50
2019-02-21T16:02:58.452Z,163.70
2019-02-21T16:05:27.633Z,195.67
2019-02-21T16:07:57.934Z,175.20
2019-02-21T16:10:28.523Z,176.03
2019-02-21T16:12:57.902Z,113.80
2019-02-21T16:15:28.067Z,103.67
2019-02-21T16:17:57.571Z,100.87
2019-02-21T16:20:27.039Z,90.43
2019-02-21T16:23:03.138Z,81.57
2019-02-21T16:25:33.889Z,93.73
2019-02-21T16:28:04.990Z,78.70
2019-02-21T16:30:37.064Z,78.53
2019-02-21T16:33:06.535Z,63.40
2019-02-21T16:35:35.940Z,46.77
2019-02-21T16:38:06.417Z,38.20
2019-02-21T16:40:35.784Z,34.23
2019-02-21T16:43:06.102Z,38.30
2019-02-21T16:45:43.584Z,38.57
2019-02-21T16:48:06.409Z,37.97
2019-02-21T16:50:49.807Z,33.83
2019-02-21T16:53:21.722Z,36.97
2019-02-21T16:55:50.891Z,34.10
2019-02-21T16:58:20.366Z,39.07
2019-02-21T17:00:56.482Z,42.00
2019-02-21T17:03:21.887Z,40.30
2019-02-21T17:05:51.373Z,37.60
2019-02-21T17:08:21.623Z,35.47
2019-02-21T17:10:51.960Z,35.10
2019-02-21T17:13:22.331Z,39.40
2019-02-21T17:15:51.869Z,35.43
2019-02-21T17:18:21.292Z,36.03
2019-02-21T17:20:50.477Z,38.37
2019-02-21T17:23:22.911Z,38.93
2019-02-21T17:25:51.133Z,39.77
2019-02-21T17:28:20.590Z,39.97
2019-02-21T17:30:50.070Z,35.67
2019-02-21T17:33:19.546Z,36.80
2019-02-21T17:35:48.763Z,36.60
2019-02-21T17:38:18.167Z,44.07
2019-02-21T17:40:47.727Z,41.10
2019-02-21T17:43:18.838Z,44.27
2019-02-21T17:45:48.318Z,48.67
2019-02-21T17:48:17.865Z,47.13
2019-02-21T17:50:47.357Z,46.67
2019-02-21T17:53:16.530Z,51.03
2019-02-21T17:55:46.051Z,54.37
2019-02-21T17:58:17.266Z,50.87
2019-02-21T18:00:46.637Z,48.20
2019-02-21T18:03:16.070Z,56.87
2019-02-21T18:05:46.434Z,53.73
2019-02-21T18:08:15.632Z,58.60
2019-02-21T18:11:03.541Z,56.57
2019-02-21T18:13:32.885Z,77.27
2019-02-21T18:16:02.051Z,86.00
2019-02-21T18:18:31.310Z,95.03
2019-02-21T18:21:00.636Z,105.23
2019-02-21T18:23:30.949Z,117.67
2019-02-21T18:26:03.557Z,132.37
2019-02-21T18:28:36.354Z,174.20
2019-02-21T18:31:05.852Z,223.30
2019-02-21T18:33:35.656Z,187.47
2019-02-21T18:36:04.928Z,173.97
2019-02-21T18:38:35.451Z,206.50
2019-02-21T18:41:05.880Z,191.50
2019-02-21T18:43:35.418Z,174.70
2019-02-21T18:46:04.844Z,170.17
2019-02-21T18:48:35.124Z,166.00
2019-02-21T18:51:04.635Z,175.13
2019-02-21T18:53:33.848Z,156.50
2019-02-21T18:56:03.688Z,179.47
2019-02-21T18:58:35.097Z,173.53
2019-02-21T19:01:04.403Z,188.07
2019-02-21T19:03:34.002Z,157.20
2019-02-21T19:06:06.031Z,198.30
2019-02-21T19:08:36.409Z,184.30
2019-02-21T19:11:06.001Z,153.53
2019-02-21T19:13:35.415Z,156.20
2019-02-21T19:16:05.804Z,146.53
2019-02-21T19:18:38.850Z,193.43
2019-02-21T19:21:08.217Z,181.07
2019-02-21T19:23:39.591Z,165.87
2019-02-21T19:26:09.935Z,192.43
2019-02-21T19:28:42.287Z,181.53
2019-02-21T19:31:13.761Z,188.10
2019-02-21T19:33:59.430Z,189.70
2019-02-21T19:36:35.036Z,154.77
2019-02-21T19:39:06.718Z,180.93
2019-02-21T19:41:43.055Z,171.17
2019-02-21T19:44:12.599Z,139.30
2019-02-21T19:46:41.995Z,127.80
2019-02-21T19:49:11.235Z,158.83
2019-02-21T19:51:40.707Z,119.83
2019-02-21T19:54:12.182Z,143.53
2019-02-21T19:56:42.537Z,116.00
2019-02-21T19:59:12.158Z,96.63
2019-02-21T20:01:42.888Z,92.57
2019-02-21T20:04:13.019Z,96.27
2019-02-21T20:06:48.075Z,93.10
2019-02-21T20:09:20.708Z,81.73
2019-02-21T20:11:50.177Z,85.67
2019-02-21T20:14:19.976Z,82.70
2019-02-21T20:16:49.156Z,83.20
2019-02-21T20:19:18.332Z,80.00
2019-02-21T20:21:47.865Z,80.50
2019-02-21T20:24:18.079Z,85.63
2019-02-21T20:26:47.230Z,81.00
2019-02-21T20:29:16.794Z,83.07
2019-02-21T20:31:46.260Z,91.47
2019-02-21T20:34:16.597Z,86.17
2019-02-21T20:36:50.910Z,83.10
2019-02-21T20:39:17.239Z,86.70
2019-02-21T20:41:46.751Z,86.03
2019-02-21T20:44:16.228Z,74.57
2019-02-21T20:46:46.518Z,74.03
2019-02-21T20:49:16.009Z,71.53
2019-02-21T20:51:45.526Z,65.77
2019-02-21T20:54:14.729Z,61.40
2019-02-21T20:56:44.150Z,53.63
2019-02-21T20:59:13.803Z,44.87
2019-02-21T21:01:47.286Z,45.10
2019-02-21T21:04:19.758Z,50.10
2019-02-21T21:06:49.124Z,55.37
2019-02-21T21:09:19.514Z,46.80
2019-02-21T21:11:48.763Z,41.93
2019-02-21T21:14:18.020Z,36.83
2019-02-21T21:16:48.432Z,42.27
2019-02-21T21:19:18.001Z,40.80
2019-02-21T21:21:47.364Z,45.57
2019-02-21T21:24:16.543Z,43.57
2019-02-21T21:26:46.832Z,34.23
2019-02-21T21:29:18.337Z,31.73
2019-02-21T21:31:48.655Z,32.03
2019-02-21T21:34:17.839Z,33.30
2019-02-21T21:36:47.262Z,31.57
2019-02-21T21:39:16.414Z,28.37
2019-02-21T21:41:47.939Z,29.37
2019-02-21T21:44:17.398Z,27.50
2019-02-21T21:46:47.881Z,28.60
2019-02-21T21:49:17.348Z,24.93
2019-02-21T21:51:46.745Z,28.00
2019-02-21T21:54:22.842Z,24.83
2019-02-21T21:56:52.005Z,24.33
2019-02-21T21:59:26.376Z,23.27
2019-02-21T22:01:56.682Z,22.00
2019-02-21T22:04:34.000Z,19.90
2019-02-21T22:07:21.988Z,21.13
2019-02-21T22:10:01.705Z,25.50
2019-02-21T22:12:36.085Z,21.70
2019-02-21T22:15:14.130Z,23.83
2019-02-21T22:17:49.439Z,24.00
2019-02-21T22:20:21.429Z,21.10
2019-02-21T22:22:51.747Z,26.50
2019-02-21T22:25:43.489Z,24.53
2019-02-21T22:28:12.809Z,23.10
2019-02-21T22:30:43.133Z,26.40
2019-02-21T22:33:13.496Z,25.47
2019-02-21T22:35:51.963Z,27.87
2019-02-21T22:38:22.352Z,24.70
2019-02-21T22:40:51.811Z,24.33
2019-02-21T22:43:22.944Z,24.63
2019-02-21T22:45:56.178Z,24.83
2019-02-21T22:48:26.452Z,26.87
2019-02-21T22:50:57.609Z,30.17
2019-02-21T22:53:26.881Z,26.20
2019-02-21T22:55:57.026Z,29.63
2019-02-21T22:58:27.343Z,24.57
2019-02-21T23:01:04.706Z,22.43
2019-02-21T23:03:42.314Z,20.17
2019-02-21T23:06:31.663Z,21.53
2019-02-21T23:09:03.896Z,19.97
2019-02-21T23:11:33.771Z,17.73
2019-02-21T23:14:06.502Z,14.57
2019-02-21T23:16:43.146Z,12.33
2019-02-21T23:19:24.208Z,15.10
2019-02-21T23:21:53.601Z,13.37
2019-02-21T23:24:23.014Z,11.60
2019-02-21T23:26:52.204Z,10.30
2019-02-21T23:29:27.445Z,12.80
2019-02-21T23:32:03.414Z,10.63
2019-02-21T23:34:39.406Z,12.60
2019-02-21T23:37:10.663Z,8.57
2019-02-21T23:39:40.206Z,10.47
2019-02-21T23:42:09.650Z,11.53
2019-02-21T23:44:40.043Z,11.13
2019-02-21T23:47:10.270Z,11.60
2019-02-21T23:49:41.428Z,9.37
2019-02-21T23:52:11.803Z,14.70
2019-02-21T23:54:41.254Z,15.57
2019-02-21T23:57:10.410Z,11.07
2019-02-21T23:59:39.956Z,9.67
